sensor_id;sensor_type;location;lat;lon;timestamp;P1;durP1;ratioP1;P2;durP2;ratioP2
23404;SDS011;11875;49.356;2.718;2022-07-23T00:00:59;17.33;;;10.32;;
23404;SDS011;11875;49.356;2.718;2022-07-23T00:03:24;22.27;;;11.57;;
23404;SDS011;11875;49.356;2.718;2022-07-23T00:05:50;18.05;;;11.45;;
23404;SDS011;11875;49.356;2.718;2022-07-23T00:08:16;16.52;;;10.93;;
23404;SDS011;11875;49.356;2.718;2022-07-23T00:10:41;18.05;;;11.95;;
23404;SDS011;11875;49.356;2.718;2022-07-23T00:13:07;16.42;;;11.77;;
23404;SDS011;11875;49.356;2.718;2022-07-23T00:15:33;19.85;;;12.25;;
23404;SDS011;11875;49.356;2.718;2022-07-23T00:17:59;21.85;;;11.68;;
23404;SDS011;11875;49.356;2.718;2022-07-23T00:20:24;23.92;;;12.05;;
23404;SDS011;11875;49.356;2.718;2022-07-23T00:22:51;17.55;;;11.80;;
23404;SDS011;11875;49.356;2.718;2022-07-23T00:25:19;15.93;;;11.82;;
23404;SDS011;11875;49.356;2.718;2022-07-23T00:27:46;21.17;;;11.45;;
23404;SDS011;11875;49.356;2.718;2022-07-23T00:30:13;21.95;;;12.77;;
23404;SDS011;11875;49.356;2.718;2022-07-23T00:32:54;18.13;;;11.85;;
23404;SDS011;11875;49.356;2.718;2022-07-23T00:35:22;20.42;;;12.55;;
23404;SDS011;11875;49.356;2.718;2022-07-23T00:37:50;19.52;;;11.73;;
23404;SDS011;11875;49.356;2.718;2022-07-23T00:40:15;20.42;;;11.32;;
23404;SDS011;11875;49.356;2.718;2022-07-23T00:42:41;22.73;;;12.02;;
23404;SDS011;11875;49.356;2.718;2022-07-23T00:45:07;18.35;;;11.93;;
23404;SDS011;11875;49.356;2.718;2022-07-23T00:47:34;20.25;;;12.55;;
23404;SDS011;11875;49.356;2.718;2022-07-23T00:49:59;24.05;;;12.80;;
23404;SDS011;11875;49.356;2.718;2022-07-23T00:52:25;20.63;;;12.38;;
23404;SDS011;11875;49.356;2.718;2022-07-23T00:54:51;24.50;;;12.30;;
23404;SDS011;11875;49.356;2.718;2022-07-23T00:57:16;20.27;;;12.52;;
23404;SDS011;11875;49.356;2.718;2022-07-23T00:59:42;23.85;;;13.00;;
23404;SDS011;11875;49.356;2.718;2022-07-23T01:02:08;19.55;;;12.60;;
23404;SDS011;11875;49.356;2.718;2022-07-23T01:04:34;22.30;;;13.98;;
23404;SDS011;11875;49.356;2.718;2022-07-23T01:07:01;19.85;;;12.85;;
23404;SDS011;11875;49.356;2.718;2022-07-23T01:09:27;19.58;;;12.45;;
23404;SDS011;11875;49.356;2.718;2022-07-23T01:11:54;24.30;;;14.68;;
23404;SDS011;11875;49.356;2.718;2022-07-23T01:14:20;21.23;;;13.52;;
23404;SDS011;11875;49.356;2.718;2022-07-23T01:16:47;22.13;;;12.85;;
23404;SDS011;11875;49.356;2.718;2022-07-23T01:19:14;20.73;;;13.07;;
23404;SDS011;11875;49.356;2.718;2022-07-23T01:21:41;17.83;;;12.20;;
23404;SDS011;11875;49.356;2.718;2022-07-23T01:24:09;20.98;;;12.93;;
23404;SDS011;11875;49.356;2.718;2022-07-23T01:26:36;16.92;;;12.10;;
23404;SDS011;11875;49.356;2.718;2022-07-23T01:29:03;22.98;;;13.15;;
23404;SDS011;11875;49.356;2.718;2022-07-23T01:31:29;25.75;;;11.98;;
23404;SDS011;11875;49.356;2.718;2022-07-23T01:33:55;18.33;;;11.85;;
23404;SDS011;11875;49.356;2.718;2022-07-23T01:36:21;20.33;;;11.90;;
23404;SDS011;11875;49.356;2.718;2022-07-23T01:38:47;19.00;;;10.90;;
23404;SDS011;11875;49.356;2.718;2022-07-23T01:41:14;20.90;;;11.68;;
23404;SDS011;11875;49.356;2.718;2022-07-23T01:43:40;18.65;;;11.85;;
23404;SDS011;11875;49.356;2.718;2022-07-23T01:46:06;19.35;;;11.18;;
23404;SDS011;11875;49.356;2.718;2022-07-23T01:48:31;21.58;;;11.10;;
23404;SDS011;11875;49.356;2.718;2022-07-23T01:50:57;21.88;;;11.38;;
23404;SDS011;11875;49.356;2.718;2022-07-23T01:53:23;20.42;;;11.98;;
23404;SDS011;11875;49.356;2.718;2022-07-23T01:55:48;19.58;;;11.07;;
23404;SDS011;11875;49.356;2.718;2022-07-23T01:58:14;17.98;;;12.57;;
23404;SDS011;11875;49.356;2.718;2022-07-23T02:00:40;15.75;;;11.57;;
23404;SDS011;11875;49.356;2.718;2022-07-23T02:03:05;20.60;;;12.18;;
23404;SDS011;11875;49.356;2.718;2022-07-23T02:05:31;18.25;;;11.77;;
23404;SDS011;11875;49.356;2.718;2022-07-23T02:07:57;20.13;;;12.18;;
23404;SDS011;11875;49.356;2.718;2022-07-23T02:10:24;18.58;;;12.38;;
23404;SDS011;11875;49.356;2.718;2022-07-23T02:12:50;19.80;;;12.15;;
23404;SDS011;11875;49.356;2.718;2022-07-23T02:15:15;23.02;;;12.50;;
23404;SDS011;11875;49.356;2.718;2022-07-23T02:17:41;25.40;;;13.50;;
23404;SDS011;11875;49.356;2.718;2022-07-23T02:20:08;22.02;;;13.07;;
23404;SDS011;11875;49.356;2.718;2022-07-23T02:22:34;17.92;;;13.30;;
23404;SDS011;11875;49.356;2.718;2022-07-23T02:25:01;22.27;;;12.65;;
23404;SDS011;11875;49.356;2.718;2022-07-23T02:27:27;33.67;;;13.60;;
23404;SDS011;11875;49.356;2.718;2022-07-23T02:29:53;24.08;;;13.18;;
23404;SDS011;11875;49.356;2.718;2022-07-23T02:32:19;25.95;;;13.90;;
23404;SDS011;11875;49.356;2.718;2022-07-23T02:34:46;23.40;;;13.65;;
23404;SDS011;11875;49.356;2.718;2022-07-23T02:37:12;25.08;;;14.73;;
23404;SDS011;11875;49.356;2.718;2022-07-23T02:39:38;25.88;;;15.38;;
23404;SDS011;11875;49.356;2.718;2022-07-23T02:42:04;23.95;;;14.52;;
23404;SDS011;11875;49.356;2.718;2022-07-23T02:44:30;23.67;;;14.48;;
23404;SDS011;11875;49.356;2.718;2022-07-23T02:46:56;21.50;;;13.43;;
23404;SDS011;11875;49.356;2.718;2022-07-23T02:49:22;21.00;;;13.55;;
23404;SDS011;11875;49.356;2.718;2022-07-23T02:51:47;20.08;;;13.90;;
23404;SDS011;11875;49.356;2.718;2022-07-23T02:54:13;24.70;;;13.60;;
23404;SDS011;11875;49.356;2.718;2022-07-23T02:56:39;23.58;;;14.98;;
23404;SDS011;11875;49.356;2.718;2022-07-23T02:59:05;19.73;;;14.32;;
23404;SDS011;11875;49.356;2.718;2022-07-23T03:01:30;23.95;;;13.70;;
23404;SDS011;11875;49.356;2.718;2022-07-23T03:03:56;23.85;;;14.18;;
23404;SDS011;11875;49.356;2.718;2022-07-23T03:06:21;24.50;;;15.00;;
23404;SDS011;11875;49.356;2.718;2022-07-23T03:08:47;24.50;;;15.73;;
23404;SDS011;11875;49.356;2.718;2022-07-23T03:11:13;24.00;;;15.32;;
23404;SDS011;11875;49.356;2.718;2022-07-23T03:13:39;19.45;;;14.30;;
23404;SDS011;11875;49.356;2.718;2022-07-23T03:16:05;21.55;;;14.75;;
23404;SDS011;11875;49.356;2.718;2022-07-23T03:18:31;25.45;;;14.13;;
23404;SDS011;11875;49.356;2.718;2022-07-23T03:20:58;24.25;;;15.75;;
23404;SDS011;11875;49.356;2.718;2022-07-23T03:23:23;24.35;;;15.68;;
23404;SDS011;11875;49.356;2.718;2022-07-23T03:25:49;24.77;;;16.85;;
23404;SDS011;11875;49.356;2.718;2022-07-23T03:28:15;21.63;;;15.35;;
23404;SDS011;11875;49.356;2.718;2022-07-23T03:30:42;24.88;;;15.60;;
23404;SDS011;11875;49.356;2.718;2022-07-23T03:33:08;25.85;;;14.70;;
23404;SDS011;11875;49.356;2.718;2022-07-23T03:35:34;21.85;;;15.32;;
23404;SDS011;11875;49.356;2.718;2022-07-23T03:37:59;25.67;;;15.82;;
23404;SDS011;11875;49.356;2.718;2022-07-23T03:40:25;23.70;;;15.40;;
23404;SDS011;11875;49.356;2.718;2022-07-23T03:42:51;21.23;;;14.93;;
23404;SDS011;11875;49.356;2.718;2022-07-23T03:45:16;21.63;;;15.38;;
23404;SDS011;11875;49.356;2.718;2022-07-23T03:47:42;24.67;;;16.35;;
23404;SDS011;11875;49.356;2.718;2022-07-23T03:50:09;24.10;;;17.50;;
23404;SDS011;11875;49.356;2.718;2022-07-23T03:52:35;22.55;;;15.40;;
23404;SDS011;11875;49.356;2.718;2022-07-23T03:55:01;21.65;;;15.80;;
23404;SDS011;11875;49.356;2.718;2022-07-23T03:57:27;26.77;;;16.50;;
23404;SDS011;11875;49.356;2.718;2022-07-23T03:59:53;23.48;;;16.92;;
23404;SDS011;11875;49.356;2.718;2022-07-23T04:02:18;23.67;;;16.45;;
23404;SDS011;11875;49.356;2.718;2022-07-23T04:04:44;22.10;;;16.75;;
23404;SDS011;11875;49.356;2.718;2022-07-23T04:07:10;23.70;;;15.57;;
23404;SDS011;11875;49.356;2.718;2022-07-23T04:09:35;23.38;;;15.43;;
23404;SDS011;11875;49.356;2.718;2022-07-23T04:12:01;23.20;;;15.40;;
23404;SDS011;11875;49.356;2.718;2022-07-23T04:14:26;20.35;;;15.93;;
23404;SDS011;11875;49.356;2.718;2022-07-23T04:16:52;30.40;;;17.08;;
23404;SDS011;11875;49.356;2.718;2022-07-23T04:19:18;26.92;;;17.02;;
23404;SDS011;11875;49.356;2.718;2022-07-23T04:21:43;28.58;;;17.83;;
23404;SDS011;11875;49.356;2.718;2022-07-23T04:24:09;28.77;;;17.30;;
23404;SDS011;11875;49.356;2.718;2022-07-23T04:26:34;23.55;;;16.45;;
23404;SDS011;11875;49.356;2.718;2022-07-23T04:29:00;28.80;;;17.50;;
23404;SDS011;11875;49.356;2.718;2022-07-23T04:31:26;24.92;;;16.40;;
23404;SDS011;11875;49.356;2.718;2022-07-23T04:33:51;28.10;;;17.70;;
23404;SDS011;11875;49.356;2.718;2022-07-23T04:36:17;26.00;;;17.17;;
23404;SDS011;11875;49.356;2.718;2022-07-23T04:38:42;22.23;;;16.60;;
23404;SDS011;11875;49.356;2.718;2022-07-23T04:41:08;25.80;;;17.15;;
23404;SDS011;11875;49.356;2.718;2022-07-23T04:43:33;23.33;;;16.42;;
23404;SDS011;11875;49.356;2.718;2022-07-23T04:45:59;24.45;;;17.33;;
23404;SDS011;11875;49.356;2.718;2022-07-23T04:48:25;26.60;;;17.42;;
23404;SDS011;11875;49.356;2.718;2022-07-23T04:50:50;25.20;;;16.65;;
23404;SDS011;11875;49.356;2.718;2022-07-23T04:53:16;24.40;;;16.25;;
23404;SDS011;11875;49.356;2.718;2022-07-23T04:55:43;26.27;;;16.25;;
23404;SDS011;11875;49.356;2.718;2022-07-23T04:58:10;21.85;;;16.38;;
23404;SDS011;11875;49.356;2.718;2022-07-23T05:00:36;24.08;;;16.90;;
23404;SDS011;11875;49.356;2.718;2022-07-23T05:03:01;23.67;;;16.60;;
23404;SDS011;11875;49.356;2.718;2022-07-23T05:05:27;26.38;;;18.05;;
23404;SDS011;11875;49.356;2.718;2022-07-23T05:07:53;23.95;;;17.35;;
23404;SDS011;11875;49.356;2.718;2022-07-23T05:10:18;25.42;;;17.55;;
23404;SDS011;11875;49.356;2.718;2022-07-23T05:12:44;27.67;;;18.38;;
23404;SDS011;11875;49.356;2.718;2022-07-23T05:15:10;23.55;;;17.35;;
23404;SDS011;11875;49.356;2.718;2022-07-23T05:17:35;27.83;;;18.20;;
23404;SDS011;11875;49.356;2.718;2022-07-23T05:20:01;30.00;;;19.67;;
23404;SDS011;11875;49.356;2.718;2022-07-23T05:22:27;25.15;;;18.92;;
23404;SDS011;11875;49.356;2.718;2022-07-23T05:24:53;26.88;;;18.33;;
23404;SDS011;11875;49.356;2.718;2022-07-23T05:27:19;27.98;;;18.85;;
23404;SDS011;11875;49.356;2.718;2022-07-23T05:29:45;26.70;;;17.60;;
23404;SDS011;11875;49.356;2.718;2022-07-23T05:32:10;24.40;;;18.92;;
23404;SDS011;11875;49.356;2.718;2022-07-23T05:34:36;29.65;;;18.63;;
23404;SDS011;11875;49.356;2.718;2022-07-23T05:37:01;27.75;;;18.77;;
23404;SDS011;11875;49.356;2.718;2022-07-23T05:39:27;29.52;;;19.75;;
23404;SDS011;11875;49.356;2.718;2022-07-23T05:41:53;26.33;;;18.52;;
23404;SDS011;11875;49.356;2.718;2022-07-23T05:44:18;32.33;;;19.58;;
23404;SDS011;11875;49.356;2.718;2022-07-23T05:46:44;27.27;;;19.85;;
23404;SDS011;11875;49.356;2.718;2022-07-23T05:49:09;28.38;;;18.90;;
23404;SDS011;11875;49.356;2.718;2022-07-23T05:51:35;29.50;;;20.23;;
23404;SDS011;11875;49.356;2.718;2022-07-23T05:54:01;28.60;;;19.55;;
23404;SDS011;11875;49.356;2.718;2022-07-23T05:56:26;28.92;;;21.17;;
23404;SDS011;11875;49.356;2.718;2022-07-23T05:58:52;27.77;;;20.02;;
23404;SDS011;11875;49.356;2.718;2022-07-23T06:01:17;30.95;;;20.45;;
23404;SDS011;11875;49.356;2.718;2022-07-23T06:03:43;28.02;;;19.98;;
23404;SDS011;11875;49.356;2.718;2022-07-23T06:06:09;26.88;;;20.58;;
23404;SDS011;11875;49.356;2.718;2022-07-23T06:08:34;28.73;;;20.35;;
23404;SDS011;11875;49.356;2.718;2022-07-23T06:11:00;27.17;;;21.08;;
23404;SDS011;11875;49.356;2.718;2022-07-23T06:13:25;32.67;;;21.60;;
23404;SDS011;11875;49.356;2.718;2022-07-23T06:15:52;30.20;;;21.15;;
23404;SDS011;11875;49.356;2.718;2022-07-23T06:18:18;26.08;;;19.92;;
23404;SDS011;11875;49.356;2.718;2022-07-23T06:20:44;29.52;;;20.17;;
23404;SDS011;11875;49.356;2.718;2022-07-23T06:23:09;28.27;;;20.60;;
23404;SDS011;11875;49.356;2.718;2022-07-23T06:25:37;34.38;;;21.33;;
23404;SDS011;11875;49.356;2.718;2022-07-23T06:28:03;33.00;;;20.33;;
23404;SDS011;11875;49.356;2.718;2022-07-23T06:30:29;31.02;;;20.10;;
23404;SDS011;11875;49.356;2.718;2022-07-23T06:32:55;26.35;;;20.40;;
23404;SDS011;11875;49.356;2.718;2022-07-23T06:35:20;26.17;;;20.33;;
23404;SDS011;11875;49.356;2.718;2022-07-23T06:37:46;27.90;;;20.73;;
23404;SDS011;11875;49.356;2.718;2022-07-23T06:40:12;27.55;;;21.02;;
23404;SDS011;11875;49.356;2.718;2022-07-23T06:42:38;27.70;;;20.52;;
23404;SDS011;11875;49.356;2.718;2022-07-23T06:45:04;30.38;;;20.25;;
23404;SDS011;11875;49.356;2.718;2022-07-23T06:47:31;27.63;;;19.05;;
23404;SDS011;11875;49.356;2.718;2022-07-23T06:49:57;28.70;;;20.73;;
23404;SDS011;11875;49.356;2.718;2022-07-23T06:52:22;25.50;;;19.80;;
23404;SDS011;11875;49.356;2.718;2022-07-23T06:54:48;27.60;;;19.67;;
23404;SDS011;11875;49.356;2.718;2022-07-23T06:57:14;26.05;;;20.05;;
23404;SDS011;11875;49.356;2.718;2022-07-23T06:59:40;31.60;;;22.35;;
23404;SDS011;11875;49.356;2.718;2022-07-23T07:02:06;27.27;;;21.02;;
23404;SDS011;11875;49.356;2.718;2022-07-23T07:04:32;25.77;;;20.08;;
23404;SDS011;11875;49.356;2.718;2022-07-23T07:06:58;27.42;;;19.35;;
23404;SDS011;11875;49.356;2.718;2022-07-23T07:09:23;26.55;;;20.55;;
23404;SDS011;11875;49.356;2.718;2022-07-23T07:11:49;25.80;;;19.20;;
23404;SDS011;11875;49.356;2.718;2022-07-23T07:14:15;34.40;;;19.20;;
23404;SDS011;11875;49.356;2.718;2022-07-23T07:16:40;25.67;;;18.67;;
23404;SDS011;11875;49.356;2.718;2022-07-23T07:19:06;23.83;;;17.92;;
23404;SDS011;11875;49.356;2.718;2022-07-23T07:21:32;26.42;;;17.90;;
23404;SDS011;11875;49.356;2.718;2022-07-23T07:23:57;27.45;;;19.00;;
23404;SDS011;11875;49.356;2.718;2022-07-23T07:26:23;24.75;;;18.45;;
23404;SDS011;11875;49.356;2.718;2022-07-23T07:28:49;25.73;;;18.40;;
23404;SDS011;11875;49.356;2.718;2022-07-23T07:31:15;23.02;;;16.88;;
23404;SDS011;11875;49.356;2.718;2022-07-23T07:33:40;22.70;;;17.52;;
23404;SDS011;11875;49.356;2.718;2022-07-23T07:36:06;25.85;;;18.05;;
23404;SDS011;11875;49.356;2.718;2022-07-23T07:38:32;20.88;;;16.67;;
23404;SDS011;11875;49.356;2.718;2022-07-23T07:40:57;25.23;;;18.40;;
23404;SDS011;11875;49.356;2.718;2022-07-23T07:43:23;24.98;;;17.40;;
23404;SDS011;11875;49.356;2.718;2022-07-23T07:45:49;24.92;;;18.33;;
23404;SDS011;11875;49.356;2.718;2022-07-23T07:48:14;26.13;;;17.38;;
23404;SDS011;11875;49.356;2.718;2022-07-23T07:50:40;20.90;;;15.60;;
23404;SDS011;11875;49.356;2.718;2022-07-23T07:53:05;25.38;;;16.30;;
23404;SDS011;11875;49.356;2.718;2022-07-23T07:55:31;21.63;;;15.10;;
23404;SDS011;11875;49.356;2.718;2022-07-23T07:57:57;18.58;;;14.27;;
23404;SDS011;11875;49.356;2.718;2022-07-23T08:00:23;21.15;;;15.27;;
23404;SDS011;11875;49.356;2.718;2022-07-23T08:02:49;19.40;;;14.55;;
23404;SDS011;11875;49.356;2.718;2022-07-23T08:05:23;24.13;;;15.07;;
23404;SDS011;11875;49.356;2.718;2022-07-23T08:07:51;22.88;;;15.05;;
23404;SDS011;11875;49.356;2.718;2022-07-23T08:10:17;19.48;;;14.75;;
23404;SDS011;11875;49.356;2.718;2022-07-23T08:12:47;22.40;;;14.48;;
23404;SDS011;11875;49.356;2.718;2022-07-23T08:15:15;21.20;;;13.63;;
23404;SDS011;11875;49.356;2.718;2022-07-23T08:17:43;19.35;;;13.23;;
23404;SDS011;11875;49.356;2.718;2022-07-23T08:20:10;18.02;;;12.55;;
23404;SDS011;11875;49.356;2.718;2022-07-23T08:22:47;18.45;;;13.23;;
23404;SDS011;11875;49.356;2.718;2022-07-23T08:25:21;18.63;;;14.80;;
23404;SDS011;11875;49.356;2.718;2022-07-23T08:27:49;21.98;;;14.05;;
23404;SDS011;11875;49.356;2.718;2022-07-23T08:30:15;21.58;;;13.80;;
23404;SDS011;11875;49.356;2.718;2022-07-23T08:35:36;19.90;;;12.48;;
23404;SDS011;11875;49.356;2.718;2022-07-23T08:38:04;20.58;;;13.88;;
23404;SDS011;11875;49.356;2.718;2022-07-23T08:40:32;21.52;;;13.25;;
23404;SDS011;11875;49.356;2.718;2022-07-23T08:42:59;17.75;;;13.65;;
23404;SDS011;11875;49.356;2.718;2022-07-23T08:45:27;19.70;;;13.32;;
23404;SDS011;11875;49.356;2.718;2022-07-23T08:47:54;17.25;;;12.50;;
23404;SDS011;11875;49.356;2.718;2022-07-23T08:50:21;19.77;;;13.18;;
23404;SDS011;11875;49.356;2.718;2022-07-23T08:52:49;17.38;;;11.82;;
23404;SDS011;11875;49.356;2.718;2022-07-23T08:55:19;19.02;;;11.73;;
23404;SDS011;11875;49.356;2.718;2022-07-23T08:57:47;18.38;;;12.98;;
23404;SDS011;11875;49.356;2.718;2022-07-23T09:00:14;14.80;;;11.65;;
23404;SDS011;11875;49.356;2.718;2022-07-23T09:02:41;17.58;;;13.15;;
23404;SDS011;11875;49.356;2.718;2022-07-23T09:05:08;15.82;;;12.00;;
23404;SDS011;11875;49.356;2.718;2022-07-23T09:08:02;17.10;;;11.70;;
23404;SDS011;11875;49.356;2.718;2022-07-23T09:10:54;15.32;;;11.90;;
23404;SDS011;11875;49.356;2.718;2022-07-23T09:15:50;15.77;;;11.82;;
23404;SDS011;11875;49.356;2.718;2022-07-23T09:18:16;16.15;;;11.63;;
23404;SDS011;11875;49.356;2.718;2022-07-23T09:20:43;17.67;;;11.73;;
23404;SDS011;11875;49.356;2.718;2022-07-23T09:23:09;15.80;;;11.48;;
23404;SDS011;11875;49.356;2.718;2022-07-23T09:25:35;18.92;;;10.88;;
23404;SDS011;11875;49.356;2.718;2022-07-23T09:28:00;17.23;;;11.95;;
23404;SDS011;11875;49.356;2.718;2022-07-23T09:30:31;14.35;;;10.45;;
23404;SDS011;11875;49.356;2.718;2022-07-23T09:33:12;14.98;;;11.32;;
23404;SDS011;11875;49.356;2.718;2022-07-23T09:36:00;12.73;;;9.38;;
23404;SDS011;11875;49.356;2.718;2022-07-23T09:38:25;14.15;;;9.55;;
23404;SDS011;11875;49.356;2.718;2022-07-23T09:41:10;21.30;;;10.85;;
23404;SDS011;11875;49.356;2.718;2022-07-23T09:43:36;11.10;;;9.20;;
23404;SDS011;11875;49.356;2.718;2022-07-23T09:49:09;18.20;;;9.80;;
23404;SDS011;11875;49.356;2.718;2022-07-23T09:51:43;12.02;;;9.25;;
23404;SDS011;11875;49.356;2.718;2022-07-23T09:54:24;11.93;;;9.60;;
23404;SDS011;11875;49.356;2.718;2022-07-23T09:56:55;15.68;;;10.10;;
23404;SDS011;11875;49.356;2.718;2022-07-23T09:59:22;19.02;;;10.77;;
23404;SDS011;11875;49.356;2.718;2022-07-23T10:01:58;13.20;;;10.25;;
23404;SDS011;11875;49.356;2.718;2022-07-23T10:04:25;15.60;;;9.35;;
23404;SDS011;11875;49.356;2.718;2022-07-23T10:06:54;12.73;;;9.32;;
23404;SDS011;11875;49.356;2.718;2022-07-23T10:09:26;15.70;;;10.35;;
23404;SDS011;11875;49.356;2.718;2022-07-23T10:12:02;13.65;;;8.95;;
23404;SDS011;11875;49.356;2.718;2022-07-23T10:14:48;13.05;;;8.52;;
23404;SDS011;11875;49.356;2.718;2022-07-23T10:17:15;12.07;;;9.18;;
23404;SDS011;11875;49.356;2.718;2022-07-23T10:19:41;13.38;;;9.68;;
23404;SDS011;11875;49.356;2.718;2022-07-23T10:22:10;14.80;;;9.25;;
23404;SDS011;11875;49.356;2.718;2022-07-23T10:30:19;9.30;;;7.85;;
23404;SDS011;11875;49.356;2.718;2022-07-23T10:36:18;13.13;;;7.60;;
23404;SDS011;11875;49.356;2.718;2022-07-23T10:38:51;9.20;;;7.32;;
23404;SDS011;11875;49.356;2.718;2022-07-23T10:41:34;11.38;;;7.45;;
23404;SDS011;11875;49.356;2.718;2022-07-23T10:46:31;14.20;;;8.50;;
23404;SDS011;11875;49.356;2.718;2022-07-23T10:49:24;13.45;;;8.18;;
23404;SDS011;11875;49.356;2.718;2022-07-23T10:54:46;11.00;;;7.85;;
23404;SDS011;11875;49.356;2.718;2022-07-23T10:57:14;8.70;;;6.97;;
23404;SDS011;11875;49.356;2.718;2022-07-23T11:02:35;7.57;;;6.43;;
23404;SDS011;11875;49.356;2.718;2022-07-23T11:05:03;8.73;;;6.38;;
23404;SDS011;11875;49.356;2.718;2022-07-23T11:07:34;7.60;;;5.38;;
23404;SDS011;11875;49.356;2.718;2022-07-23T11:10:00;7.50;;;6.55;;
23404;SDS011;11875;49.356;2.718;2022-07-23T11:17:32;9.32;;;7.18;;
23404;SDS011;11875;49.356;2.718;2022-07-23T11:22:38;9.20;;;5.20;;
23404;SDS011;11875;49.356;2.718;2022-07-23T11:25:05;11.13;;;9.25;;
23404;SDS011;11875;49.356;2.718;2022-07-23T11:27:38;18.77;;;15.70;;
23404;SDS011;11875;49.356;2.718;2022-07-23T11:30:08;14.43;;;9.35;;
23404;SDS011;11875;49.356;2.718;2022-07-23T11:32:39;6.75;;;4.65;;
23404;SDS011;11875;49.356;2.718;2022-07-23T11:35:18;7.07;;;4.72;;
23404;SDS011;11875;49.356;2.718;2022-07-23T11:37:48;8.02;;;4.82;;
23404;SDS011;11875;49.356;2.718;2022-07-23T11:40:18;11.82;;;5.53;;
23404;SDS011;11875;49.356;2.718;2022-07-23T11:42:55;8.43;;;5.93;;
23404;SDS011;11875;49.356;2.718;2022-07-23T11:45:22;15.38;;;11.48;;
23404;SDS011;11875;49.356;2.718;2022-07-23T11:47:49;13.95;;;12.45;;
23404;SDS011;11875;49.356;2.718;2022-07-23T11:50:15;8.38;;;6.03;;
23404;SDS011;11875;49.356;2.718;2022-07-23T11:52:41;14.23;;;11.30;;
23404;SDS011;11875;49.356;2.718;2022-07-23T11:55:08;50.63;;;41.30;;
23404;SDS011;11875;49.356;2.718;2022-07-23T11:57:39;8.60;;;6.60;;
23404;SDS011;11875;49.356;2.718;2022-07-23T12:00:09;10.10;;;7.22;;
23404;SDS011;11875;49.356;2.718;2022-07-23T12:02:38;14.43;;;9.77;;
23404;SDS011;11875;49.356;2.718;2022-07-23T12:05:11;34.75;;;27.17;;
23404;SDS011;11875;49.356;2.718;2022-07-23T12:07:39;13.60;;;11.02;;
23404;SDS011;11875;49.356;2.718;2022-07-23T12:10:10;11.77;;;7.30;;
23404;SDS011;11875;49.356;2.718;2022-07-23T12:12:40;8.88;;;6.18;;
23404;SDS011;11875;49.356;2.718;2022-07-23T12:15:08;14.02;;;11.25;;
23404;SDS011;11875;49.356;2.718;2022-07-23T12:17:37;11.65;;;9.18;;
23404;SDS011;11875;49.356;2.718;2022-07-23T12:20:04;17.67;;;11.57;;
23404;SDS011;11875;49.356;2.718;2022-07-23T12:22:39;12.40;;;9.80;;
23404;SDS011;11875;49.356;2.718;2022-07-23T12:25:08;17.48;;;12.90;;
23404;SDS011;11875;49.356;2.718;2022-07-23T12:27:36;9.52;;;8.00;;
23404;SDS011;11875;49.356;2.718;2022-07-23T12:33:04;11.65;;;9.50;;
23404;SDS011;11875;49.356;2.718;2022-07-23T12:35:33;17.40;;;13.57;;
23404;SDS011;11875;49.356;2.718;2022-07-23T12:38:04;14.95;;;12.40;;
23404;SDS011;11875;49.356;2.718;2022-07-23T12:40:32;14.52;;;11.18;;
23404;SDS011;11875;49.356;2.718;2022-07-23T12:43:05;13.48;;;10.93;;
23404;SDS011;11875;49.356;2.718;2022-07-23T12:45:43;21.13;;;16.65;;
23404;SDS011;11875;49.356;2.718;2022-07-23T12:48:27;20.70;;;14.25;;
23404;SDS011;11875;49.356;2.718;2022-07-23T12:51:15;11.85;;;9.90;;
23404;SDS011;11875;49.356;2.718;2022-07-23T12:53:43;17.65;;;12.43;;
23404;SDS011;11875;49.356;2.718;2022-07-23T12:56:11;14.93;;;10.30;;
23404;SDS011;11875;49.356;2.718;2022-07-23T12:58:45;13.52;;;10.18;;
23404;SDS011;11875;49.356;2.718;2022-07-23T13:03:59;13.82;;;10.18;;
23404;SDS011;11875;49.356;2.718;2022-07-23T13:06:36;15.25;;;10.35;;
23404;SDS011;11875;49.356;2.718;2022-07-23T13:09:26;13.30;;;9.70;;
23404;SDS011;11875;49.356;2.718;2022-07-23T13:11:53;17.45;;;10.20;;
23404;SDS011;11875;49.356;2.718;2022-07-23T13:14:20;14.18;;;9.35;;
23404;SDS011;11875;49.356;2.718;2022-07-23T13:16:47;12.75;;;9.40;;
23404;SDS011;11875;49.356;2.718;2022-07-23T13:19:15;15.43;;;9.65;;
23404;SDS011;11875;49.356;2.718;2022-07-23T13:21:41;15.52;;;10.55;;
23404;SDS011;11875;49.356;2.718;2022-07-23T13:24:07;12.95;;;10.52;;
23404;SDS011;11875;49.356;2.718;2022-07-23T13:26:34;14.43;;;9.90;;
23404;SDS011;11875;49.356;2.718;2022-07-23T13:29:00;16.88;;;10.75;;
23404;SDS011;11875;49.356;2.718;2022-07-23T13:31:26;12.43;;;10.20;;
23404;SDS011;11875;49.356;2.718;2022-07-23T13:33:52;11.13;;;9.77;;
23404;SDS011;11875;49.356;2.718;2022-07-23T13:36:17;13.70;;;10.18;;
23404;SDS011;11875;49.356;2.718;2022-07-23T13:38:43;14.02;;;10.05;;
23404;SDS011;11875;49.356;2.718;2022-07-23T13:41:10;14.25;;;9.82;;
23404;SDS011;11875;49.356;2.718;2022-07-23T13:43:35;14.60;;;9.48;;
23404;SDS011;11875;49.356;2.718;2022-07-23T13:46:01;12.35;;;9.95;;
23404;SDS011;11875;49.356;2.718;2022-07-23T13:48:27;13.10;;;9.43;;
23404;SDS011;11875;49.356;2.718;2022-07-23T13:50:54;18.58;;;9.57;;
23404;SDS011;11875;49.356;2.718;2022-07-23T13:53:20;13.40;;;9.65;;
23404;SDS011;11875;49.356;2.718;2022-07-23T13:55:47;12.30;;;9.45;;
23404;SDS011;11875;49.356;2.718;2022-07-23T13:58:14;13.13;;;9.80;;
23404;SDS011;11875;49.356;2.718;2022-07-23T14:00:42;12.20;;;10.65;;
23404;SDS011;11875;49.356;2.718;2022-07-23T14:03:18;11.52;;;9.65;;
23404;SDS011;11875;49.356;2.718;2022-07-23T14:05:45;10.95;;;9.18;;
23404;SDS011;11875;49.356;2.718;2022-07-23T14:08:11;13.20;;;9.32;;
23404;SDS011;11875;49.356;2.718;2022-07-23T14:10:36;16.30;;;9.68;;
23404;SDS011;11875;49.356;2.718;2022-07-23T14:13:02;11.55;;;9.50;;
23404;SDS011;11875;49.356;2.718;2022-07-23T14:15:29;10.23;;;8.40;;
23404;SDS011;11875;49.356;2.718;2022-07-23T14:17:56;10.00;;;8.30;;
23404;SDS011;11875;49.356;2.718;2022-07-23T14:20:22;9.63;;;8.23;;
23404;SDS011;11875;49.356;2.718;2022-07-23T14:22:48;12.48;;;8.68;;
23404;SDS011;11875;49.356;2.718;2022-07-23T14:25:14;10.40;;;7.97;;
23404;SDS011;11875;49.356;2.718;2022-07-23T14:27:41;10.05;;;8.27;;
23404;SDS011;11875;49.356;2.718;2022-07-23T14:30:08;11.50;;;8.27;;
23404;SDS011;11875;49.356;2.718;2022-07-23T14:32:34;11.27;;;8.50;;
23404;SDS011;11875;49.356;2.718;2022-07-23T14:35:00;10.52;;;8.48;;
23404;SDS011;11875;49.356;2.718;2022-07-23T14:37:26;9.80;;;8.80;;
23404;SDS011;11875;49.356;2.718;2022-07-23T14:39:52;9.85;;;8.27;;
23404;SDS011;11875;49.356;2.718;2022-07-23T14:42:18;12.65;;;8.75;;
23404;SDS011;11875;49.356;2.718;2022-07-23T14:44:44;11.00;;;7.55;;
23404;SDS011;11875;49.356;2.718;2022-07-23T14:47:09;9.70;;;7.80;;
23404;SDS011;11875;49.356;2.718;2022-07-23T14:49:35;11.45;;;7.53;;
23404;SDS011;11875;49.356;2.718;2022-07-23T14:52:01;10.25;;;8.50;;
23404;SDS011;11875;49.356;2.718;2022-07-23T14:54:28;9.38;;;7.78;;
23404;SDS011;11875;49.356;2.718;2022-07-23T14:56:54;13.55;;;8.52;;
23404;SDS011;11875;49.356;2.718;2022-07-23T14:59:20;9.88;;;7.78;;
23404;SDS011;11875;49.356;2.718;2022-07-23T15:01:46;8.98;;;7.70;;
23404;SDS011;11875;49.356;2.718;2022-07-23T15:04:12;9.13;;;7.35;;
23404;SDS011;11875;49.356;2.718;2022-07-23T15:06:37;11.02;;;8.25;;